Time;durP1;ratioP1;P1;durP2;ratioP2;P2;SDS_P1;SDS_P2;PMS_P1;PMS_P2;Temp;Humidity;BMP_temperature;BMP_pressure;BME280_temperature;BME280_humidity;BME280_pressure;Samples;Min_cycle;Max_cycle;Signal;HPM_P1;HPM_P2
2022/09/28 00:01:56;;;;;;;2.67;2.40;;;;;;;10.46;100.00;98898.08;5186973;57;1139228;-69
2022/09/28 00:07:02;;;;;;;3.03;2.77;;;;;;;10.38;100.00;98894.92;5188399;56;1136936;-66
2022/09/28 00:12:07;;;;;;;4.80;2.43;;;;;;;10.28;100.00;98890.71;5222485;56;1136992;-71
2022/09/28 00:17:15;;;;;;;4.13;3.33;;;;;;;10.23;100.00;98893.84;5222413;56;1136921;-63
2022/09/28 00:22:21;;;;;;;3.33;2.50;;;;;;;10.16;100.00;98889.63;5222757;56;1136943;-69
2022/09/28 00:27:26;;;;;;;3.30;3.00;;;;;;;10.13;100.00;98893.07;5222248;56;1137034;-71
2022/09/28 00:32:38;;;;;;;3.13;2.53;;;;;;;10.05;100.00;98885.94;5222265;56;1137502;-69
2022/09/28 00:37:47;;;;;;;3.10;2.27;;;;;;;10.03;100.00;98883.11;5199966;56;1136899;-68
2022/09/28 00:42:55;;;;;;;3.00;2.50;;;;;;;9.95;100.00;98880.41;5184713;56;1136932;-65
2022/09/28 00:48:02;;;;;;;5.17;2.20;;;;;;;9.93;100.00;98881.08;5186859;57;1134990;-66
2022/09/28 00:53:26;;;;;;;3.70;2.30;;;;;;;9.90;100.00;98882.70;5209334;56;1134885;-68
2022/09/28 00:58:39;;;;;;;7.13;2.63;;;;;;;9.85;100.00;98877.88;5210093;56;1135009;-68
2022/09/28 01:03:47;;;;;;;8.08;2.70;;;;;;;9.84;100.00;98876.21;5187099;56;1132850;-68
2022/09/28 01:08:57;;;;;;;4.73;3.10;;;;;;;9.90;100.00;98883.53;5201329;56;1137444;-71
2022/09/28 01:14:03;;;;;;;3.47;3.17;;;;;;;9.95;100.00;98881.72;5222591;56;1137015;-66
2022/09/28 01:19:33;;;;;;;3.42;3.12;;;;;;;9.98;100.00;98888.02;5195124;56;1137212;-68
2022/09/28 01:24:46;;;;;;;3.17;2.77;;;;;;;9.98;100.00;98889.34;5219875;56;1137225;-66
2022/09/28 01:30:07;;;;;;;3.63;3.33;;;;;;;9.98;100.00;98897.27;5219545;56;1136773;-69
2022/09/28 01:35:30;;;;;;;13.37;7.10;;;;;;;10.06;100.00;98892.88;5211212;56;1136949;-67
2022/09/28 01:40:37;;;;;;;6.90;3.70;;;;;;;10.11;100.00;98893.72;5152317;56;1140973;-68
2022/09/28 01:46:13;;;;;;;14.40;7.43;;;;;;;10.07;100.00;98893.22;5152252;56;1139042;-65
2022/09/28 01:51:40;;;;;;;9.90;6.67;;;;;;;10.00;100.00;98892.17;5170157;56;1141402;-65
2022/09/28 01:56:50;;;;;;;8.80;4.87;;;;;;;10.00;100.00;98888.70;5058566;58;1139594;-67
2022/09/28 02:02:15;;;;;;;4.17;3.77;;;;;;;10.04;100.00;98875.53;4970049;59;1139220;-69
2022/09/28 02:07:29;;;;;;;5.10;3.60;;;;;;;9.95;100.00;98881.72;4981582;58;1139057;-65
2022/09/28 02:12:37;;;;;;;;;;;;;;;9.75;100.00;98876.66;5051439;58;1134812;-65
2022/09/28 02:17:42;;;;;;;4.73;3.00;;;;;;;9.60;100.00;98885.28;5050585;58;972154;-65
2022/09/28 02:22:54;;;;;;;5.53;3.90;;;;;;;9.46;100.00;98881.37;5047833;58;1132900;-68
2022/09/28 02:28:04;;;;;;;4.05;3.08;;;;;;;9.36;100.00;98885.39;4990622;58;1135299;-68
2022/09/28 02:33:22;;;;;;;2.87;2.60;;;;;;;9.24;100.00;98880.50;5112169;56;1134896;-64
2022/09/28 02:38:29;;;;;;;8.27;3.40;;;;;;;9.11;100.00;98885.66;5167173;56;1134919;-67
2022/09/28 02:44:01;;;;;;;7.27;3.10;;;;;;;9.01;100.00;98890.15;5143105;57;1135014;-69
2022/09/28 02:49:36;;;;;;;4.17;3.17;;;;;;;8.95;100.00;98886.80;5152357;56;1132753;-68
2022/09/28 02:55:20;;;;;;;4.07;3.23;;;;;;;8.90;100.00;98894.32;5215244;56;1136901;-69
2022/09/28 03:00:30;;;;;;;4.12;3.27;;;;;;;8.79;100.00;98890.09;5170516;56;1136941;-68
2022/09/28 03:05:46;;;;;;;2.60;2.03;;;;;;;8.73;100.00;98893.79;5143109;56;1136885;-68
2022/09/28 03:10:59;;;;;;;8.10;3.30;;;;;;;8.69;100.00;98899.04;5180914;56;1136861;-68
2022/09/28 03:16:13;;;;;;;8.60;3.10;;;;;;;8.59;100.00;98900.38;5155512;56;1136887;-69
2022/09/28 03:21:19;;;;;;;4.27;3.10;;;;;;;8.52;100.00;98909.03;5174470;56;1136961;-66
2022/09/28 03:26:25;;;;;;;4.00;3.30;;;;;;;8.41;100.00;98908.22;5222503;56;1137019;-68
2022/09/28 03:31:31;;;;;;;4.20;3.60;;;;;;;8.39;100.00;98904.09;5222494;56;1136893;-66
2022/09/28 03:36:37;;;;;;;5.47;3.20;;;;;;;8.36;100.00;98896.47;5208084;56;1137018;-63
2022/09/28 03:41:44;;;;;;;5.07;4.20;;;;;;;8.44;100.00;98903.16;5198966;56;1136927;-68
2022/09/28 03:46:49;;;;;;;8.30;3.53;;;;;;;8.51;100.00;98898.15;5187029;57;1136870;-66
2022/09/28 03:51:55;;;;;;;8.87;3.50;;;;;;;8.59;100.00;98895.11;5200488;56;1136985;-68
2022/09/28 03:57:03;;;;;;;4.67;3.90;;;;;;;8.56;100.00;98888.81;5220766;56;1136988;-68
2022/09/28 04:02:10;;;;;;;4.07;3.67;;;;;;;8.61;100.00;98894.97;5186880;56;1136958;-66
2022/09/28 04:07:16;;;;;;;6.60;5.03;;;;;;;8.71;100.00;98897.89;5189990;56;1136886;-69
2022/09/28 04:12:22;;;;;;;13.70;6.97;;;;;;;8.74;100.00;98896.28;5222637;56;1137233;-69
2022/09/28 04:17:29;;;;;;;11.50;5.47;;;;;;;8.68;100.00;98891.62;5222270;56;1138994;-69
2022/09/28 04:22:39;;;;;;;11.13;6.50;;;;;;;8.51;100.00;98896.83;5222144;56;1139118;-66
2022/09/28 04:33:09;;;;;;;8.87;6.60;;;;;;;8.49;100.00;98894.34;5222335;56;1134871;-64
2022/09/28 04:38:15;;;;;;;9.83;8.27;;;;;;;8.63;100.00;98889.90;5216053;56;1134937;-66
2022/09/28 04:43:20;;;;;;;8.73;6.60;;;;;;;8.72;100.00;98889.50;5196661;56;1135145;-66
2022/09/28 04:48:27;;;;;;;12.03;6.80;;;;;;;8.68;100.00;98894.73;5210694;56;1134836;-71
2022/09/28 04:53:40;;;;;;;7.73;5.97;;;;;;;8.69;100.00;98895.08;5182763;56;1137097;-66
2022/09/28 04:58:46;;;;;;;7.07;5.50;;;;;;;8.74;100.00;98896.28;5189871;56;1134918;-68
2022/09/28 05:03:55;;;;;;;13.43;8.00;;;;;;;8.64;100.00;98896.00;5203894;56;1135048;-63
2022/09/28 05:09:20;;;;;;;16.40;8.63;;;;;;;8.64;100.00;98890.24;5210915;56;1136824;-63
2022/09/28 05:14:25;;;;;;;18.50;9.30;;;;;;;8.56;100.00;98891.93;5220472;56;1136952;-65
2022/09/28 05:19:33;;;;;;;19.43;10.13;;;;;;;8.44;100.00;98891.30;5220584;56;1136883;-65
2022/09/28 05:24:41;;;;;;;7.50;4.90;;;;;;;8.44;100.00;98893.94;5202827;56;1137056;-62
2022/09/28 05:29:47;;;;;;;4.90;4.03;;;;;;;8.48;100.00;98896.63;5199114;56;1136848;-66
2022/09/28 05:35:12;;;;;;;8.30;4.35;;;;;;;8.40;100.00;98899.17;5199439;56;1136796;-67
2022/09/28 05:40:22;;;;;;;9.17;5.20;;;;;;;8.28;100.00;98891.88;5212948;55;1136865;-66
2022/09/28 05:45:29;;;;;;;14.37;7.43;;;;;;;8.19;100.00;98893.24;5221922;56;1136919;-64
2022/09/28 05:50:35;;;;;;;14.77;5.13;;;;;;;8.23;100.00;98894.14;5201691;56;1138912;-66
2022/09/28 05:55:41;;;;;;;30.50;15.90;;;;;;;8.21;100.00;98890.81;5212772;56;1139027;-67
2022/09/28 06:00:47;;;;;;;10.07;5.20;;;;;;;8.24;100.00;98887.90;5203862;56;1141050;-65
2022/09/28 06:05:54;;;;;;;8.20;4.77;;;;;;;8.36;100.00;98888.09;5182813;56;1138978;-67
2022/09/28 06:11:03;;;;;;;17.53;9.13;;;;;;;8.37;100.00;98879.70;5211900;56;1136881;-66
2022/09/28 06:16:10;;;;;;;5.73;4.53;;;;;;;8.44;100.00;98884.23;5212157;56;1138996;-67
2022/09/28 06:21:17;;;;;;;10.17;6.20;;;;;;;8.50;100.00;98874.92;5220584;56;1136902;-65
2022/09/28 06:26:24;;;;;;;7.35;5.72;;;;;;;8.44;100.00;98886.03;5220267;56;1138989;-67
2022/09/28 06:31:30;;;;;;;6.20;4.60;;;;;;;8.40;100.00;98879.41;5215900;56;1137081;-66
2022/09/28 06:36:37;;;;;;;50.03;23.33;;;;;;;8.33;100.00;98881.78;5208677;56;1136872;-65
2022/09/28 06:41:43;;;;;;;7.80;6.00;;;;;;;8.42;100.00;98881.39;5192772;56;1141046;-64
2022/09/28 06:46:54;;;;;;;11.97;5.13;;;;;;;8.41;100.00;98884.51;5206402;56;1136885;-64
2022/09/28 06:52:14;;;;;;;8.00;4.80;;;;;;;8.48;100.00;98881.31;5177898;55;1138939;-64
2022/09/28 06:57:27;;;;;;;5.43;4.00;;;;;;;8.48;100.00;98874.23;5180175;56;1136842;-69
2022/09/28 07:02:33;;;;;;;13.00;5.27;;;;;;;8.48;100.00;98866.33;5197203;56;1136924;-67
2022/09/28 07:07:43;;;;;;;7.60;5.37;;;;;;;8.51;100.00;98869.16;5196355;56;1138944;-66
2022/09/28 07:13:07;;;;;;;8.30;4.50;;;;;;;8.46;100.00;98870.42;5221160;56;1136936;-65
2022/09/28 07:18:16;;;;;;;10.30;6.20;;;;;;;8.48;100.00;98880.82;5204180;56;1136883;-68
2022/09/28 07:23:22;;;;;;;12.37;8.97;;;;;;;8.65;100.00;98882.68;5188978;56;1138978;-65
2022/09/28 07:28:45;;;;;;;10.90;5.73;;;;;;;8.75;100.00;98871.59;5189902;56;1136907;-68
2022/09/28 07:34:01;;;;;;;7.93;5.07;;;;;;;8.92;100.00;98871.28;5122266;56;1136946;-68
2022/09/28 07:39:11;;;;;;;11.53;7.33;;;;;;;9.20;100.00;98856.22;5122393;57;1134931;-66
2022/09/28 07:44:19;;;;;;;6.43;5.20;;;;;;;9.43;100.00;98853.97;5141307;57;1136945;-67
2022/09/28 07:49:26;;;;;;;5.33;4.47;;;;;;;9.77;100.00;98856.22;5141716;57;1135058;-69
2022/09/28 07:54:35;;;;;;;8.50;5.43;;;;;;;9.87;100.00;98861.39;5140913;57;1134796;-66
2022/09/28 07:59:52;;;;;;;6.93;5.13;;;;;;;9.97;100.00;98859.46;5141450;56;1134850;-66
2022/09/28 08:05:16;;;;;;;8.17;4.90;;;;;;;10.15;100.00;98864.20;5159226;57;21187;-65
2022/09/28 08:10:21;;;;;;;4.47;3.93;;;;;;;10.45;100.00;98860.25;5137158;56;1134874;-68
2022/09/28 08:15:47;;;;;;;10.50;5.40;;;;;;;10.69;100.00;98852.92;5136941;57;1138953;-67
2022/09/28 08:26:35;;;;;;;9.10;4.97;;;;;;;11.25;100.00;98860.64;5146886;56;1141067;-67
2022/09/28 08:31:41;;;;;;;6.97;4.93;;;;;;;11.52;100.00;98866.94;5147856;56;1138881;-68
2022/09/28 08:36:49;;;;;;;7.43;5.07;;;;;;;11.43;100.00;98865.30;5146434;56;1138820;-68
2022/09/28 08:42:10;;;;;;;9.37;5.17;;;;;;;11.42;100.00;98870.75;5127598;56;1138925;-65
2022/09/28 08:53:34;;;;;;;11.27;6.27;;;;;;;11.23;100.00;98875.36;5155729;56;1138921;-64
2022/09/28 08:58:51;;;;;;;10.53;6.53;;;;;;;11.11;100.00;98876.67;5147886;56;1139022;-68
2022/09/28 09:03:58;;;;;;;12.10;6.70;;;;;;;11.11;100.00;98883.77;5155970;56;1139361;-66
2022/09/28 09:09:40;;;;;;;6.30;5.10;;;;;;;11.04;100.00;98885.39;5156187;56;1139174;-65
2022/09/28 09:15:09;;;;;;;11.77;5.20;;;;;;;11.03;100.00;98872.66;5150362;56;1136935;-66
2022/09/28 09:20:20;;;;;;;13.40;6.03;;;;;;;11.19;100.00;98865.25;5154661;56;1139031;-66
2022/09/28 09:25:52;;;;;;;16.77;8.55;;;;;;;11.40;100.00;98860.33;5151680;57;1137133;-68
2022/09/28 09:31:19;;;;;;;9.67;4.20;;;;;;;11.64;100.00;98860.81;5150505;56;1141300;-66
2022/09/28 09:37:04;;;;;;;4.30;3.40;;;;;;;11.93;100.00;98865.12;5149516;56;1139230;-67
2022/09/28 09:43:07;;;;;;;8.50;5.60;;;;;;;12.15;100.00;98860.95;5154881;56;1138981;-68
2022/09/28 09:48:33;;;;;;;19.60;13.33;;;;;;;12.23;100.00;98849.48;5153859;56;1138926;-69
2022/09/28 09:53:47;;;;;;;4.67;3.77;;;;;;;12.35;100.00;98853.44;5149440;56;1143170;-70
2022/09/28 09:58:57;;;;;;;60.07;41.50;;;;;;;12.41;98.43;98855.39;5138086;56;1139269;-66
2022/09/28 10:04:35;;;;;;;12.17;5.10;;;;;;;12.36;98.91;98850.30;5155032;56;1138991;-65
2022/09/28 10:09:46;;;;;;;12.37;8.63;;;;;;;12.39;97.67;98839.32;5156954;56;1136315;-69
2022/09/28 10:14:57;;;;;;;5.80;3.77;;;;;;;12.68;99.57;98837.70;5157420;56;1136951;-69
2022/09/28 10:20:05;;;;;;;6.77;3.27;;;;;;;12.91;96.31;98836.43;5154507;56;1134863;-67
2022/09/28 10:25:33;;;;;;;11.53;3.10;;;;;;;12.75;94.82;98840.50;5155905;56;1134828;-66
2022/09/28 10:30:41;;;;;;;3.37;3.03;;;;;;;12.66;95.39;98838.90;5155737;56;1134857;-69
2022/09/28 10:35:48;;;;;;;6.62;3.25;;;;;;;12.88;97.10;98834.13;5174333;56;1136783;-70
2022/09/28 10:41:09;;;;;;;6.33;3.77;;;;;;;13.02;94.46;98825.41;5148735;56;1136978;-71
2022/09/28 10:46:24;;;;;;;3.60;2.00;;;;;;;12.99;93.79;98823.09;5155881;56;1136877;-66
2022/09/28 10:51:58;;;;;;;6.37;2.90;;;;;;;13.16;95.80;98829.16;5153851;57;1137009;-67
2022/09/28 10:56:59;;;;;;;4.70;2.90;;;;;;;13.17;91.56;98825.50;5153749;56;1136822;-69
2022/09/28 11:02:28;;;;;;;6.93;2.63;;;;;;;13.08;92.19;98824.39;5139620;56;1136887;-68
2022/09/28 11:07:44;;;;;;;3.13;2.10;;;;;;;13.05;93.31;98817.59;5155600;56;1136856;-65
2022/09/28 11:12:53;;;;;;;7.67;2.80;;;;;;;13.22;92.53;98810.38;5154207;56;1137014;-67
2022/09/28 11:18:28;;;;;;;5.00;2.70;;;;;;;13.45;92.35;98811.67;5149725;56;1137003;-65
2022/09/28 11:23:34;;;;;;;3.07;2.00;;;;;;;13.48;86.56;98810.83;5156343;56;1137132;-68
2022/09/28 11:28:41;;;;;;;3.93;2.07;;;;;;;13.48;90.10;98816.14;5150878;56;1136933;-66
2022/09/28 11:34:03;;;;;;;8.13;2.60;;;;;;;13.44;91.00;98810.88;5143955;56;1136924;-68
2022/09/28 11:39:30;;;;;;;5.40;1.90;;;;;;;13.41;89.13;98813.89;5143545;56;1136863;-68
2022/09/28 11:44:49;;;;;;;4.87;1.80;;;;;;;13.42;90.26;98811.56;5137060;56;1134810;-66
2022/09/28 11:50:32;;;;;;;6.87;2.10;;;;;;;13.42;89.12;98816.05;5142182;56;1135114;-69
2022/09/28 11:56:15;;;;;;;2.03;1.60;;;;;;;13.42;89.93;98816.88;4967343;59;1134878;-68
2022/09/28 12:01:50;;;;;;;6.28;1.70;;;;;;;13.36;90.12;98809.10;4969382;59;1136999;-66
2022/09/28 12:07:22;;;;;;;3.60;2.07;;;;;;;13.40;90.08;98810.08;4905603;59;1136897;-66
2022/09/28 12:12:37;;;;;;;18.70;14.10;;;;;;;13.35;89.92;98809.28;4808325;60;1137249;-69
2022/09/28 12:17:52;;;;;;;7.50;2.20;;;;;;;13.34;89.83;98808.95;4826678;60;1140908;-69
2022/09/28 12:23:17;;;;;;;6.53;2.63;;;;;;;13.31;89.06;98805.32;4881876;59;1136874;-68
2022/09/28 12:28:37;;;;;;;1.80;1.63;;;;;;;13.26;89.65;98806.38;4974979;58;1136888;-70
2022/09/28 12:33:46;;;;;;;2.17;1.40;;;;;;;13.21;89.67;98802.09;5090142;57;1136852;-68
2022/09/28 12:39:23;;;;;;;6.67;2.50;;;;;;;13.18;88.70;98805.92;5132933;57;1136847;-66
2022/09/28 12:44:48;;;;;;;4.60;2.33;;;;;;;13.14;88.88;98801.13;5127277;57;1136868;-70
2022/09/28 12:50:13;;;;;;;8.13;4.83;;;;;;;13.14;89.07;98803.25;5130583;57;1134692;-66
2022/09/28 12:55:34;;;;;;;12.43;7.20;;;;;;;13.15;88.98;98802.29;5125925;57;1134841;-68
2022/09/28 13:00:58;;;;;;;9.17;3.67;;;;;;;13.16;88.96;98797.30;5129056;57;1137036;-69
2022/09/28 13:06:32;;;;;;;15.53;10.70;;;;;;;13.17;88.15;98796.30;5126176;57;1134960;-70
2022/09/28 13:11:45;;;;;;;8.83;3.77;;;;;;;13.13;87.49;98792.34;5132057;57;1140990;-63
2022/09/28 13:17:18;;;;;;;6.53;2.53;;;;;;;13.18;89.21;98791.32;4983129;58;1136957;-66
2022/09/28 13:22:44;;;;;;;;;;;;;;;13.22;88.14;98788.64;4897988;59;1136926;-67
2022/09/28 13:28:04;;;;;;;;;;;;;;;13.26;88.61;98785.14;4819767;60;974368;-68
2022/09/28 13:33:17;;;;;;;4.60;2.70;;;;;;;13.25;89.23;98786.14;4836034;60;972334;-67
2022/09/28 13:38:30;;;;;;;5.42;4.17;;;;;;;13.21;89.13;98781.68;4895337;59;1134895;-67
2022/09/28 13:44:19;;;;;;;42.53;14.78;;;;;;;13.16;89.17;98777.89;5022726;58;1136909;-67
2022/09/28 13:49:48;;;;;;;49.93;18.83;;;;;;;13.14;88.97;98771.94;4968500;57;1141128;-70
2022/09/28 13:55:07;;;;;;;56.77;22.33;;;;;;;13.15;89.32;98775.74;5205345;56;1139370;-69
2022/09/28 14:00:38;;;;;;;44.43;22.23;;;;;;;13.16;88.93;98781.87;5137795;56;1139060;-67
2022/09/28 14:05:48;;;;;;;20.20;9.67;;;;;;;13.15;89.35;98771.77;5215375;56;1138989;-69
2022/09/28 14:11:20;;;;;;;25.80;13.40;;;;;;;13.11;90.16;98774.94;5207868;56;1136921;-65
2022/09/28 14:16:32;;;;;;;8.63;5.13;;;;;;;13.05;90.45;98765.84;5171729;56;1136849;-68
2022/09/28 14:22:09;;;;;;;;;;;;;;;13.00;90.13;98775.66;5233039;56;1137031;-66
2022/09/28 14:27:50;;;;;;;6.60;5.60;;;;;;;12.86;90.20;98763.66;5231813;56;974202;-65
2022/09/28 14:32:59;;;;;;;10.17;8.23;;;;;;;12.74;90.52;98771.70;5242033;56;1134196;-67
2022/09/28 14:43:51;;;;;;;6.73;4.70;;;;;;;12.63;91.22;98781.72;5156109;57;1139249;-67
2022/09/28 14:49:03;;;;;;;2.47;2.27;;;;;;;12.57;91.82;98783.73;5156298;57;1137053;-67
2022/09/28 14:54:13;;;;;;;7.10;5.72;;;;;;;12.51;92.88;98816.76;5228172;56;1136891;-71
2022/09/28 14:59:35;;;;;;;4.37;2.47;;;;;;;12.22;93.74;98813.40;5243652;56;1136774;-66
2022/09/28 15:04:52;;;;;;;15.08;13.62;;;;;;;11.70;90.18;98809.02;5243163;56;1136855;-68
2022/09/28 15:10:06;;;;;;;6.63;4.67;;;;;;;11.33;95.48;98842.11;5232205;56;1141243;-68
2022/09/28 15:15:13;;;;;;;14.60;8.50;;;;;;;11.11;100.00;98852.85;5156656;56;1134875;-68
2022/09/28 15:20:28;;;;;;;6.47;4.80;;;;;;;11.03;100.00;98854.64;5155142;56;1139065;-65
2022/09/28 15:25:35;;;;;;;60.10;28.33;;;;;;;11.00;100.00;98849.70;5152218;57;1136957;-64
2022/09/28 15:30:42;;;;;;;96.33;49.70;;;;;;;10.84;100.00;98856.61;5147329;57;1141106;-69
2022/09/28 15:35:55;;;;;;;12.40;7.07;;;;;;;10.69;100.00;98848.13;5151292;56;1141182;-69
2022/09/28 15:41:06;;;;;;;7.40;4.80;;;;;;;10.60;100.00;98843.29;5130970;57;1139030;-65
2022/09/28 15:46:20;;;;;;;16.50;9.53;;;;;;;10.58;100.00;98838.66;5213070;56;1136979;-67
2022/09/28 15:51:27;;;;;;;22.95;12.75;;;;;;;10.61;100.00;98833.55;5204722;56;1139035;-67
2022/09/28 15:56:32;;;;;;;18.63;5.27;;;;;;;10.54;100.00;98832.05;5055192;57;1141131;-65
2022/09/28 16:01:40;;;;;;;90.37;45.33;;;;;;;10.43;100.00;98828.35;5015664;58;1139020;-67
2022/09/28 16:07:19;;;;;;;54.07;41.43;;;;;;;10.37;100.00;98830.33;5136589;57;1139284;-64
2022/09/28 16:12:32;;;;;;;6.30;3.70;;;;;;;10.35;100.00;98837.09;5141998;56;1143334;-65
2022/09/28 16:17:40;;;;;;;2.83;1.80;;;;;;;10.25;100.00;98826.29;5164864;55;1138879;-67
2022/09/28 16:22:46;;;;;;;2.20;1.80;;;;;;;10.09;100.00;98831.80;5110091;57;1138956;-65
2022/09/28 16:27:54;;;;;;;3.73;1.40;;;;;;;10.09;100.00;98837.56;5130165;57;1138910;-64
2022/09/28 16:33:13;;;;;;;158.13;71.93;;;;;;;9.95;100.00;98836.83;5143173;57;1139281;-67
2022/09/28 16:38:20;;;;;;;33.70;19.63;;;;;;;9.92;100.00;98843.28;5147234;57;1143364;-64
2022/09/28 16:43:33;;;;;;;42.13;23.80;;;;;;;9.93;100.00;98850.70;5149205;56;1141282;-69
2022/09/28 16:48:49;;;;;;;78.87;42.63;;;;;;;9.91;100.00;98858.78;5131977;57;1141585;-68
2022/09/28 16:59:14;;;;;;;9.78;3.30;;;;;;;9.92;100.00;98858.29;5097558;57;1139248;-66
2022/09/28 17:04:22;;;;;;;4.27;2.07;;;;;;;9.93;100.00;98852.83;5136329;57;1137067;-69
2022/09/28 17:09:28;;;;;;;61.37;27.10;;;;;;;9.92;100.00;98856.48;5173969;56;1137223;-65
2022/09/28 17:14:34;;;;;;;175.63;75.23;;;;;;;9.93;100.00;98856.78;5222224;56;1141330;-68
2022/09/28 17:19:40;;;;;;;316.70;136.90;;;;;;;9.91;100.00;98861.42;5217945;56;1143046;-69
2022/09/28 17:24:47;;;;;;;120.37;64.60;;;;;;;9.89;100.00;98862.06;5221814;56;1145349;-68
2022/09/28 17:29:53;;;;;;;65.57;35.40;;;;;;;9.87;100.00;98858.75;5221979;56;1143162;-66
2022/09/28 17:34:59;;;;;;;55.63;19.20;;;;;;;9.87;100.00;98868.81;5197258;56;1141114;-69
2022/09/28 17:40:21;;;;;;;41.10;22.83;;;;;;;9.94;100.00;98864.22;5222010;56;1141094;-67
2022/09/28 17:45:30;;;;;;;27.73;16.97;;;;;;;10.00;100.00;98868.41;5221638;56;1141352;-66
2022/09/28 17:50:36;;;;;;;72.13;30.63;;;;;;;10.07;100.00;98869.45;5221606;56;1140919;-66
2022/09/28 17:55:43;;;;;;;9.60;5.20;;;;;;;10.05;100.00;98868.77;5219640;56;1141027;-71
2022/09/28 18:00:51;;;;;;;5.97;4.13;;;;;;;9.97;100.00;98870.03;5217828;56;1136939;-70
2022/09/28 18:06:03;;;;;;;5.87;4.03;;;;;;;9.95;100.00;98868.52;5221517;56;1134864;-68
2022/09/28 18:11:10;;;;;;;5.92;3.22;;;;;;;9.96;100.00;98865.73;5200009;56;1135135;-67
2022/09/28 18:16:18;;;;;;;3.23;2.50;;;;;;;10.01;100.00;98872.70;5217747;56;1134865;-70
2022/09/28 18:21:23;;;;;;;46.43;27.57;;;;;;;10.07;100.00;98877.86;5183822;56;1136996;-72
2022/09/28 18:26:29;;;;;;;7.93;5.23;;;;;;;10.00;100.00;98885.56;5147741;56;1141342;-70
2022/09/28 18:31:34;;;;;;;3.83;2.60;;;;;;;9.92;100.00;98892.12;5218101;56;1136954;-72
2022/09/28 18:36:40;;;;;;;3.17;2.73;;;;;;;9.81;100.00;98891.87;5191719;57;1135038;-69
2022/09/28 18:41:46;;;;;;;7.27;3.70;;;;;;;9.80;100.00;98895.98;5194513;56;1134852;-69
2022/09/28 18:46:52;;;;;;;8.13;3.30;;;;;;;9.78;100.00;98897.45;5222678;56;1134954;-71
2022/09/28 18:51:58;;;;;;;7.53;4.10;;;;;;;9.77;100.00;98898.95;5211383;56;1135039;-67
2022/09/28 18:57:04;;;;;;;5.90;4.63;;;;;;;9.70;100.00;98906.64;5222862;56;1134669;-65
2022/09/28 19:02:11;;;;;;;12.53;5.27;;;;;;;9.61;100.00;98910.20;5222885;56;1134806;-65
2022/09/28 19:07:17;;;;;;;12.40;7.30;;;;;;;9.62;100.00;98913.19;5216263;56;1137101;-64
2022/09/28 19:12:23;;;;;;;17.60;6.55;;;;;;;9.68;100.00;98909.09;5213691;56;1134877;-68
2022/09/28 19:17:28;;;;;;;5.57;3.90;;;;;;;9.74;100.00;98912.45;5212878;56;1135133;-69
2022/09/28 19:22:34;;;;;;;4.97;3.83;;;;;;;9.81;100.00;98916.13;5212160;56;21181;-66
2022/09/28 19:27:39;;;;;;;5.63;3.87;;;;;;;9.78;100.00;98920.38;5220786;56;1132049;-65
2022/09/28 19:32:45;;;;;;;4.10;3.30;;;;;;;9.73;100.00;98924.82;5210094;56;1137001;-67
2022/09/28 19:37:51;;;;;;;3.97;3.00;;;;;;;9.64;100.00;98927.52;5219183;56;1136840;-66
2022/09/28 19:42:58;;;;;;;11.93;6.60;;;;;;;9.62;100.00;98928.19;5194756;56;1136809;-64
2022/09/28 19:48:04;;;;;;;7.80;4.93;;;;;;;9.62;100.00;98932.98;5215741;56;1138991;-66
2022/09/28 19:53:10;;;;;;;11.93;8.60;;;;;;;9.58;100.00;98928.15;5199554;56;1136779;-67
2022/09/28 19:58:16;;;;;;;15.43;9.80;;;;;;;9.52;100.00;98936.17;5222117;56;1138669;-67
2022/09/28 20:03:24;;;;;;;7.30;5.43;;;;;;;9.47;100.00;98935.29;5222349;56;1139014;-65
2022/09/28 20:08:31;;;;;;;4.60;4.20;;;;;;;9.46;100.00;98937.62;5209989;56;1136843;-71
2022/09/28 20:13:38;;;;;;;9.33;5.90;;;;;;;9.45;100.00;98949.64;5165251;56;1136943;-69
2022/09/28 20:18:50;;;;;;;18.87;9.57;;;;;;;9.44;100.00;98951.45;5190036;56;1136900;-68
2022/09/28 20:23:56;;;;;;;25.23;12.43;;;;;;;9.48;100.00;98959.88;5222143;56;1139057;-66
2022/09/28 20:29:02;;;;;;;8.23;6.20;;;;;;;9.47;100.00;98959.56;5222267;56;1141392;-70
2022/09/28 20:34:08;;;;;;;5.50;4.00;;;;;;;9.32;100.00;98957.90;5202002;56;1136945;-71
2022/09/28 20:39:14;;;;;;;5.00;4.27;;;;;;;9.24;100.00;98971.02;5191493;56;1136879;-64
2022/09/28 20:44:20;;;;;;;5.60;4.50;;;;;;;9.18;100.00;98967.64;5191519;56;1137207;-71
2022/09/28 20:49:26;;;;;;;6.60;5.50;;;;;;;9.06;100.00;98967.51;5191487;57;1137145;-68
2022/09/28 20:54:32;;;;;;;10.30;6.67;;;;;;;9.00;100.00;98964.99;5219420;56;1137055;-67
2022/09/28 20:59:38;;;;;;;9.27;5.60;;;;;;;9.03;100.00;98959.39;5222280;56;1138969;-65
2022/09/28 21:04:44;;;;;;;7.20;6.43;;;;;;;9.07;100.00;98963.89;5222371;56;1136847;-70
2022/09/28 21:09:50;;;;;;;10.53;5.87;;;;;;;9.02;100.00;98972.73;5199902;56;1136933;-72
2022/09/28 21:14:56;;;;;;;8.33;5.50;;;;;;;9.00;100.00;98977.34;5136416;57;1139036;-67
2022/09/28 21:20:03;;;;;;;7.93;5.63;;;;;;;8.98;100.00;98980.13;5212415;56;1136908;-70
2022/09/28 21:25:09;;;;;;;7.03;6.00;;;;;;;8.94;100.00;98976.59;5221964;56;1136939;-64
2022/09/28 21:30:16;;;;;;;5.87;4.90;;;;;;;8.91;100.00;98984.80;5222100;56;1136819;-69
2022/09/28 21:35:22;;;;;;;9.63;5.20;;;;;;;8.87;100.00;98986.05;5194173;56;1136942;-67
2022/09/28 21:40:28;;;;;;;6.53;5.33;;;;;;;8.87;100.00;99001.38;5191329;56;1136929;-67
2022/09/28 21:45:34;;;;;;;7.77;5.30;;;;;;;8.89;100.00;99006.03;5191335;56;1136949;-68
2022/09/28 21:50:40;;;;;;;10.50;7.03;;;;;;;8.87;100.00;99001.38;5195233;56;1136920;-72
2022/09/28 21:55:46;;;;;;;7.73;6.23;;;;;;;8.83;100.00;99010.58;5222302;56;1139013;-69
2022/09/28 22:01:07;;;;;;;9.63;7.07;;;;;;;8.81;100.00;99012.53;5222392;56;1136880;-70
2022/09/28 22:06:13;;;;;;;10.43;7.13;;;;;;;8.79;100.00;99024.53;5222924;56;1136887;-69
2022/09/28 22:11:25;;;;;;;12.40;8.07;;;;;;;8.82;100.00;99028.69;5145745;56;1138931;-70
2022/09/28 22:16:32;;;;;;;9.63;7.67;;;;;;;8.80;100.00;99026.68;5152635;56;1136900;-66
2022/09/28 22:21:37;;;;;;;8.77;7.13;;;;;;;8.74;100.00;99035.98;5222808;56;1135062;-68
2022/09/28 22:26:43;;;;;;;8.67;6.63;;;;;;;8.74;100.00;99037.30;5222840;56;1134845;-68
2022/09/28 22:31:48;;;;;;;7.27;5.50;;;;;;;8.73;100.00;99040.08;5222540;56;1134787;-68
2022/09/28 22:36:54;;;;;;;12.37;6.23;;;;;;;8.70;100.00;99043.86;5221872;56;1134832;-68
2022/09/28 22:42:00;;;;;;;12.83;6.67;;;;;;;8.62;100.00;99043.72;5220468;56;1136913;-70
2022/09/28 22:47:05;;;;;;;9.03;6.73;;;;;;;8.64;100.00;99051.00;5220276;56;1136907;-71
2022/09/28 22:52:11;;;;;;;10.13;7.50;;;;;;;8.68;100.00;99055.51;5219905;56;1134867;-71
2022/09/28 22:57:18;;;;;;;12.83;7.13;;;;;;;8.67;100.00;99055.16;5220381;56;1137009;-67
2022/09/28 23:02:24;;;;;;;8.47;6.40;;;;;;;8.71;100.00;99065.73;5220375;56;1136942;-69
2022/09/28 23:07:30;;;;;;;12.47;6.07;;;;;;;8.73;100.00;99068.58;5208205;56;1134867;-68
2022/09/28 23:12:37;;;;;;;7.63;6.10;;;;;;;8.73;100.00;99069.90;5130026;57;1136850;-68
2022/09/28 23:17:43;;;;;;;10.15;6.62;;;;;;;8.76;100.00;99068.80;5167974;56;1134862;-69
2022/09/28 23:22:49;;;;;;;10.83;7.87;;;;;;;8.75;100.00;99075.03;5219950;56;1136935;-70
2022/09/28 23:27:55;;;;;;;7.77;5.77;;;;;;;8.73;100.00;99083.56;5220210;56;1136914;-69
2022/09/28 23:33:01;;;;;;;9.40;6.80;;;;;;;8.74;100.00;99082.11;5220405;56;1134852;-66
2022/09/28 23:38:07;;;;;;;10.43;7.27;;;;;;;8.77;100.00;99081.00;5220404;56;1134849;-65
2022/09/28 23:43:14;;;;;;;13.37;6.77;;;;;;;8.74;100.00;99088.70;5223694;56;1136894;-69
2022/09/28 23:48:20;;;;;;;10.57;6.43;;;;;;;8.73;100.00;99091.47;5220536;56;1135116;-66
2022/09/28 23:53:26;;;;;;;10.40;7.13;;;;;;;8.69;100.00;99095.39;5220296;56;1135045;-66
2022/09/28 23:58:32;;;;;;;8.03;5.93;;;;;;;8.67;100.00;99094.70;5220729;56;1139037;-67
